createdAt,value
2022-08-06T00:00:03.472Z,77.67
2022-08-06T00:02:22.719Z,77.56
2022-08-06T00:04:53.998Z,77.41
2022-08-06T00:07:22.332Z,77.33
2022-08-06T00:09:56.519Z,77.07
2022-08-06T00:12:30.090Z,77.13
2022-08-06T00:14:58.350Z,77.11
2022-08-06T00:17:30.188Z,77.33
2022-08-06T00:20:00.736Z,77.26
2022-08-06T00:22:29.507Z,77.62
2022-08-06T00:24:58.381Z,78.12
2022-08-06T00:27:29.379Z,78.05
2022-08-06T00:30:14.723Z,78.31
2022-08-06T00:32:51.824Z,78.64
2022-08-06T00:35:23.937Z,78.69
2022-08-06T00:37:59.116Z,78.67
2022-08-06T00:40:29.441Z,79.09
2022-08-06T00:43:02.453Z,79.17
2022-08-06T00:45:38.115Z,79.23
2022-08-06T00:48:31.356Z,79.56
2022-08-06T00:51:01.756Z,79.41
2022-08-06T00:53:33.811Z,79.42
2022-08-06T00:56:08.248Z,79.63
2022-08-06T00:58:40.746Z,79.38
2022-08-06T01:01:16.690Z,79.72
2022-08-06T01:03:51.552Z,79.74
2022-08-06T01:06:55.076Z,79.34
2022-08-06T01:09:10.847Z,78.95
2022-08-06T01:11:38.995Z,78.78
2022-08-06T01:14:09.834Z,78.51
2022-08-06T01:16:56.226Z,78.80
2022-08-06T01:19:29.856Z,78.47
2022-08-06T01:22:38.418Z,78.82
2022-08-06T01:25:20.434Z,78.86
2022-08-06T01:27:54.186Z,78.38
2022-08-06T01:30:30.763Z,78.36
2022-08-06T01:33:15.915Z,78.46
2022-08-06T01:35:55.326Z,78.53
2022-08-06T01:38:26.731Z,78.29
2022-08-06T01:40:54.634Z,78.72
2022-08-06T01:44:06.636Z,78.71
2022-08-06T01:46:10.962Z,78.55
2022-08-06T01:48:38.648Z,78.85
2022-08-06T01:51:08.665Z,78.52
2022-08-06T01:54:06.773Z,78.66
2022-08-06T01:56:57.187Z,78.58
2022-08-06T01:59:27.486Z,78.76
2022-08-06T02:01:58.363Z,78.71
2022-08-06T02:04:29.053Z,78.84
2022-08-06T02:06:57.970Z,79.23
2022-08-06T02:09:27.919Z,79.48
2022-08-06T02:12:27.711Z,79.67
2022-08-06T02:14:57.730Z,80.09
2022-08-06T02:18:03.879Z,80.45
2022-08-06T02:20:37.633Z,80.35
2022-08-06T02:23:08.514Z,80.61
2022-08-06T02:25:41.282Z,81.15
2022-08-06T02:28:10.505Z,81.69
2022-08-06T02:30:42.917Z,82.08
2022-08-06T02:33:11.498Z,82.00
2022-08-06T02:36:02.223Z,82.02
2022-08-06T02:38:55.535Z,82.54
2022-08-06T02:42:02.069Z,82.93
2022-08-06T02:44:37.357Z,82.92
2022-08-06T02:47:13.388Z,84.13
2022-08-06T02:49:56.791Z,84.05
2022-08-06T02:52:32.915Z,84.20
2022-08-06T02:55:11.801Z,84.59
2022-08-06T02:57:51.717Z,84.91
2022-08-06T03:00:20.287Z,84.41
2022-08-06T03:02:59.425Z,84.03
2022-08-06T03:05:54.911Z,84.43
2022-08-06T03:08:19.466Z,84.38
2022-08-06T03:10:50.387Z,84.52
2022-08-06T03:13:18.578Z,84.62
2022-08-06T03:16:00.340Z,84.30
2022-08-06T03:18:29.074Z,84.25
2022-08-06T03:20:57.733Z,84.64
2022-08-06T03:23:26.887Z,84.49
2022-08-06T03:25:55.604Z,84.14
2022-08-06T03:28:23.957Z,84.53
2022-08-06T03:30:55.344Z,83.95
2022-08-06T03:33:41.997Z,84.27
2022-08-06T03:36:11.657Z,83.85
2022-08-06T03:38:44.470Z,84.07
2022-08-06T03:41:18.194Z,83.75
2022-08-06T03:43:56.763Z,83.90
2022-08-06T03:46:34.047Z,83.82
2022-08-06T03:49:04.508Z,83.75
2022-08-06T03:51:52.501Z,83.34
2022-08-06T03:54:30.419Z,83.81
2022-08-06T03:57:10.278Z,83.54
2022-08-06T03:59:43.584Z,83.52
2022-08-06T04:02:37.301Z,83.83
2022-08-06T04:05:20.926Z,83.34
2022-08-06T04:07:55.415Z,83.51
2022-08-06T04:10:35.293Z,83.82
2022-08-06T04:14:03.106Z,83.81
2022-08-06T04:15:57.369Z,83.49
2022-08-06T04:18:27.257Z,83.63
2022-08-06T04:21:07.609Z,83.25
2022-08-06T04:23:45.520Z,83.48
2022-08-06T04:26:14.832Z,83.71
2022-08-06T04:28:47.501Z,82.80
2022-08-06T04:32:12.965Z,83.18
2022-08-06T04:34:19.443Z,82.88
2022-08-06T04:36:53.676Z,82.91
2022-08-06T04:39:25.710Z,82.60
2022-08-06T04:42:05.988Z,82.36
2022-08-06T04:44:34.539Z,82.29
2022-08-06T04:47:01.955Z,82.35
2022-08-06T04:50:01.795Z,82.12
2022-08-06T04:52:34.615Z,82.14
2022-08-06T04:55:24.173Z,82.04
2022-08-06T04:57:57.568Z,82.56
2022-08-06T05:00:59.932Z,82.50
2022-08-06T05:04:06.921Z,81.89
2022-08-06T05:06:47.399Z,81.42
2022-08-06T05:09:22.787Z,81.45
2022-08-06T05:12:00.445Z,81.48
2022-08-06T05:14:35.976Z,81.27
2022-08-06T05:17:03.010Z,81.21
2022-08-06T05:19:36.297Z,81.79
2022-08-06T05:22:11.162Z,81.40
2022-08-06T05:25:00.581Z,81.20
2022-08-06T05:27:54.110Z,81.88
2022-08-06T05:30:16.043Z,81.70
2022-08-06T05:32:45.640Z,82.16
2022-08-06T05:35:17.874Z,82.10
2022-08-06T05:38:02.057Z,82.08
2022-08-06T05:40:53.163Z,81.63
2022-08-06T05:43:22.633Z,81.95
2022-08-06T05:45:53.344Z,82.06
2022-08-06T05:48:29.467Z,81.56
2022-08-06T05:51:11.007Z,81.56
2022-08-06T05:54:03.868Z,81.09
2022-08-06T05:56:39.150Z,80.32
2022-08-06T05:59:38.140Z,79.97
2022-08-06T06:02:07.175Z,79.52
2022-08-06T06:04:34.730Z,78.91
2022-08-06T06:07:04.712Z,78.47
2022-08-06T06:09:56.484Z,78.03
2022-08-06T06:12:21.240Z,77.99
2022-08-06T06:14:49.512Z,77.50
2022-08-06T06:17:39.549Z,77.29
2022-08-06T06:20:18.598Z,76.72
2022-08-06T06:23:32.124Z,75.55
2022-08-06T06:26:33.806Z,74.91
2022-08-06T06:29:16.895Z,74.35
2022-08-06T06:32:34.923Z,74.45
2022-08-06T06:35:14.272Z,73.92
2022-08-06T06:38:00.124Z,73.79
2022-08-06T06:40:46.966Z,72.77
2022-08-06T06:43:26.519Z,71.40
2022-08-06T06:46:39.174Z,71.68
2022-08-06T06:49:09.651Z,71.73
2022-08-06T06:52:08.427Z,71.56
2022-08-06T06:54:42.098Z,70.12
2022-08-06T06:57:12.836Z,70.42
2022-08-06T07:00:01.358Z,70.00
2022-08-06T07:02:37.580Z,69.18
2022-08-06T07:05:05.751Z,68.93
2022-08-06T07:07:36.544Z,68.71
2022-08-06T07:10:05.196Z,68.48
2022-08-06T07:12:39.246Z,67.78
2022-08-06T07:15:14.995Z,67.33
2022-08-06T07:17:48.941Z,68.03
2022-08-06T07:20:28.878Z,68.06
2022-08-06T07:24:03.252Z,66.37
2022-08-06T07:25:53.950Z,65.88
2022-08-06T07:28:29.590Z,65.67
2022-08-06T07:31:04.294Z,65.25
2022-08-06T07:34:00.023Z,65.13
2022-08-06T07:36:26.750Z,64.18
2022-08-06T07:39:00.657Z,62.52
2022-08-06T07:41:31.733Z,62.94
2022-08-06T07:44:17.894Z,62.73
2022-08-06T07:46:52.274Z,62.27
2022-08-06T07:49:31.674Z,62.31
2022-08-06T07:52:13.759Z,61.99
2022-08-06T07:54:45.934Z,60.78
2022-08-06T07:57:25.261Z,58.46
2022-08-06T07:59:55.633Z,59.10
2022-08-06T08:02:29.653Z,57.85
2022-08-06T08:05:16.934Z,58.25
2022-08-06T08:07:53.538Z,57.68
2022-08-06T08:10:29.088Z,56.50
2022-08-06T08:12:56.669Z,56.47
2022-08-06T08:15:24.118Z,56.08
2022-08-06T08:17:57.935Z,55.19
2022-08-06T08:20:34.453Z,54.07
2022-08-06T08:23:05.492Z,54.11
2022-08-06T08:25:40.275Z,53.13
2022-08-06T08:28:11.246Z,52.94
2022-08-06T08:30:41.361Z,51.16
2022-08-06T08:33:12.159Z,50.84
2022-08-06T08:35:50.368Z,51.67
2022-08-06T08:38:32.180Z,50.88
2022-08-06T08:41:10.373Z,50.06
2022-08-06T08:44:01.279Z,48.66
2022-08-06T08:46:38.037Z,47.47
2022-08-06T08:49:18.931Z,47.66
2022-08-06T08:51:49.667Z,47.67
2022-08-06T08:54:19.752Z,47.29
2022-08-06T08:57:06.045Z,46.92
2022-08-06T08:59:56.989Z,45.91
2022-08-06T09:02:24.863Z,46.49
2022-08-06T09:04:53.529Z,46.14
2022-08-06T09:07:25.809Z,45.58
2022-08-06T09:10:07.369Z,45.78
2022-08-06T09:12:45.049Z,45.77
2022-08-06T09:15:17.246Z,44.27
2022-08-06T09:18:11.488Z,44.50
2022-08-06T09:20:35.228Z,45.17
2022-08-06T09:23:07.390Z,45.56
2022-08-06T09:25:50.982Z,44.91
2022-08-06T09:28:39.827Z,45.34
2022-08-06T09:31:22.217Z,45.26
2022-08-06T09:34:30.395Z,41.52
2022-08-06T09:36:57.156Z,41.95
2022-08-06T09:40:05.635Z,41.30
2022-08-06T09:42:43.051Z,41.95
2022-08-06T09:45:15.764Z,42.68
2022-08-06T09:47:59.085Z,43.55
2022-08-06T09:50:42.652Z,43.53
2022-08-06T09:53:14.161Z,42.54
2022-08-06T09:55:42.964Z,43.11
2022-08-06T09:58:10.577Z,43.64
2022-08-06T10:00:39.150Z,44.96
2022-08-06T10:04:03.217Z,45.28
2022-08-06T10:06:22.380Z,45.22
2022-08-06T10:08:51.533Z,44.38
2022-08-06T10:11:41.522Z,43.60
2022-08-06T10:14:30.277Z,42.03
2022-08-06T10:17:13.938Z,41.02
2022-08-06T10:19:52.616Z,40.64
2022-08-06T10:22:21.560Z,40.95
2022-08-06T10:24:54.648Z,40.16
2022-08-06T10:27:36.722Z,39.90
2022-08-06T10:30:08.265Z,40.50
2022-08-06T10:32:54.251Z,41.68
2022-08-06T10:35:25.688Z,42.96
2022-08-06T10:38:00.231Z,43.73
2022-08-06T10:40:32.247Z,43.30
2022-08-06T10:43:08.322Z,42.29
2022-08-06T10:45:40.694Z,40.65
2022-08-06T10:49:01.470Z,40.37
2022-08-06T10:51:06.237Z,39.51
2022-08-06T10:54:00.628Z,39.79
2022-08-06T10:56:28.585Z,39.49
2022-08-06T10:59:07.184Z,39.62
2022-08-06T11:02:17.127Z,39.60
2022-08-06T11:04:52.179Z,40.07
2022-08-06T11:08:08.389Z,38.77
2022-08-06T11:11:21.080Z,38.35
2022-08-06T11:14:03.598Z,37.57
2022-08-06T11:16:34.468Z,37.56
2022-08-06T11:19:07.624Z,37.06
2022-08-06T11:22:02.089Z,37.94
2022-08-06T11:24:26.973Z,37.93
2022-08-06T11:27:01.465Z,38.29
2022-08-06T11:30:10.829Z,36.76
2022-08-06T11:32:43.946Z,35.56
2022-08-06T11:35:36.041Z,35.30
2022-08-06T11:38:24.946Z,35.83
2022-08-06T11:40:58.710Z,35.41
2022-08-06T11:44:03.529Z,34.71
2022-08-06T11:46:43.113Z,35.15
2022-08-06T11:49:24.152Z,35.20
2022-08-06T11:52:05.815Z,34.40
2022-08-06T11:54:38.499Z,33.73
2022-08-06T11:57:19.645Z,33.73
2022-08-06T11:59:59.380Z,33.55
2022-08-06T12:02:47.314Z,33.72
2022-08-06T12:05:14.517Z,33.47
2022-08-06T12:07:52.489Z,33.74
2022-08-06T12:10:29.171Z,33.80
2022-08-06T12:12:57.461Z,31.92
2022-08-06T12:15:59.804Z,31.70
2022-08-06T12:18:19.524Z,31.92
2022-08-06T12:20:53.609Z,30.68
2022-08-06T12:23:53.991Z,30.92
2022-08-06T12:26:11.420Z,31.45
2022-08-06T12:28:38.828Z,31.16
2022-08-06T12:31:36.350Z,30.67
2022-08-06T12:33:53.555Z,31.91
2022-08-06T12:36:32.166Z,32.72
2022-08-06T12:39:06.198Z,31.76
2022-08-06T12:41:46.055Z,31.30
2022-08-06T12:44:55.922Z,30.20
2022-08-06T12:47:15.403Z,30.08
2022-08-06T12:49:44.338Z,29.73
2022-08-06T12:52:18.336Z,29.90
2022-08-06T12:54:46.900Z,28.98
2022-08-06T12:57:28.680Z,28.95
2022-08-06T13:00:14.711Z,29.08
2022-08-06T13:02:42.770Z,28.53
2022-08-06T13:05:14.914Z,30.09
2022-08-06T13:07:44.476Z,29.94
2022-08-06T13:10:34.832Z,29.83
2022-08-06T13:14:14.085Z,29.49
2022-08-06T13:16:04.844Z,29.98
2022-08-06T13:18:47.453Z,30.42
2022-08-06T13:21:26.968Z,29.97
2022-08-06T13:24:12.347Z,29.39
2022-08-06T13:26:51.303Z,29.96
2022-08-06T13:30:31.721Z,30.21
2022-08-06T13:32:27.364Z,30.65
2022-08-06T13:35:03.643Z,28.82
2022-08-06T13:37:57.565Z,28.46
2022-08-06T13:41:03.620Z,27.91
2022-08-06T13:43:53.996Z,28.54
2022-08-06T13:46:29.511Z,28.22
2022-08-06T13:49:02.738Z,28.81
2022-08-06T13:51:48.750Z,29.26
2022-08-06T13:54:21.698Z,28.56
2022-08-06T13:56:51.985Z,28.37
2022-08-06T13:59:21.808Z,27.30
2022-08-06T14:02:07.230Z,28.02
2022-08-06T14:04:36.404Z,26.76
2022-08-06T14:07:03.612Z,25.60
2022-08-06T14:09:57.982Z,25.43
2022-08-06T14:12:18.831Z,23.77
2022-08-06T14:14:48.578Z,25.42
2022-08-06T14:17:17.866Z,25.57
2022-08-06T14:20:14.636Z,25.46
2022-08-06T14:22:36.885Z,26.72
2022-08-06T14:25:06.286Z,27.47
2022-08-06T14:27:43.162Z,26.49
2022-08-06T14:30:27.876Z,24.20
2022-08-06T14:33:10.595Z,21.39
2022-08-06T14:35:51.026Z,20.98
2022-08-06T14:38:20.159Z,21.18
2022-08-06T14:41:09.648Z,22.65
2022-08-06T14:43:57.750Z,19.10
2022-08-06T14:46:27.254Z,16.03
2022-08-06T14:48:58.026Z,12.99
2022-08-06T14:51:37.624Z,13.15
2022-08-06T14:54:15.312Z,16.31
2022-08-06T14:56:46.018Z,17.76
2022-08-06T14:59:23.507Z,19.56
2022-08-06T15:01:51.675Z,20.81
2022-08-06T15:04:22.211Z,22.14
2022-08-06T15:06:53.757Z,22.72
2022-08-06T15:10:04.096Z,23.12
2022-08-06T15:12:11.979Z,18.36
2022-08-06T15:14:44.032Z,14.83
2022-08-06T15:17:50.160Z,11.78
2022-08-06T15:20:09.156Z,10.06
2022-08-06T15:22:36.986Z,8.34
2022-08-06T15:25:17.696Z,9.29
2022-08-06T15:27:54.070Z,8.80
2022-08-06T15:30:22.432Z,7.52
2022-08-06T15:32:56.539Z,7.08
2022-08-06T15:35:38.546Z,6.50
2022-08-06T15:38:16.019Z,6.92
2022-08-06T15:40:44.450Z,5.95
2022-08-06T15:43:12.523Z,5.90
2022-08-06T15:45:50.322Z,5.94
2022-08-06T15:48:28.682Z,6.44
2022-08-06T15:51:27.144Z,5.94
2022-08-06T15:53:54.413Z,5.25
2022-08-06T15:56:34.464Z,6.43
2022-08-06T15:59:12.296Z,6.34
2022-08-06T16:01:52.188Z,6.65
2022-08-06T16:04:28.634Z,6.86
2022-08-06T16:06:57.258Z,7.73
2022-08-06T16:09:27.941Z,6.91
2022-08-06T16:11:57.304Z,7.33
2022-08-06T16:14:33.796Z,8.54
2022-08-06T16:17:09.890Z,8.53
2022-08-06T16:19:49.535Z,7.28
2022-08-06T16:22:19.004Z,6.76
2022-08-06T16:24:46.303Z,6.84
2022-08-06T16:27:16.993Z,7.13
2022-08-06T16:29:48.416Z,9.96
2022-08-06T16:32:22.888Z,11.53
2022-08-06T16:34:59.843Z,13.49
2022-08-06T16:37:33.222Z,15.65
2022-08-06T16:40:09.120Z,17.50
2022-08-06T16:42:37.101Z,19.17
2022-08-06T16:48:18.527Z,21.30
2022-08-06T16:50:41.669Z,21.87
2022-08-06T16:54:12.179Z,22.45
2022-08-06T16:55:57.986Z,22.90
2022-08-06T16:58:34.144Z,23.45
2022-08-06T17:03:56.479Z,24.83
2022-08-06T17:06:30.164Z,25.16
2022-08-06T17:08:58.380Z,25.89
2022-08-06T17:11:45.450Z,25.59
2022-08-06T17:14:20.028Z,26.19
2022-08-06T17:17:07.224Z,26.53
2022-08-06T17:22:28.902Z,26.74
2022-08-06T17:24:58.181Z,27.57
2022-08-06T17:27:43.177Z,27.45
2022-08-06T17:30:16.058Z,28.08
2022-08-06T17:32:46.124Z,28.16
2022-08-06T17:35:16.366Z,27.86
2022-08-06T17:37:45.950Z,28.47
2022-08-06T17:40:19.694Z,28.76
2022-08-06T17:43:22.893Z,29.40
2022-08-06T17:46:02.517Z,29.34
2022-08-06T17:48:48.324Z,30.07
2022-08-06T17:51:21.102Z,29.95
2022-08-06T17:53:53.594Z,30.04
2022-08-06T17:56:30.247Z,30.05
2022-08-06T17:59:16.452Z,30.40
2022-08-06T18:01:50.369Z,30.46
2022-08-06T18:04:30.321Z,30.72
2022-08-06T18:07:01.245Z,31.25
2022-08-06T18:10:10.399Z,31.40
2022-08-06T18:12:27.799Z,32.06
2022-08-06T18:14:55.874Z,31.46
2022-08-06T18:17:47.913Z,32.35
2022-08-06T18:20:11.483Z,31.95
2022-08-06T18:22:42.632Z,32.60
2022-08-06T18:25:15.020Z,32.63
2022-08-06T18:28:03.729Z,32.97
2022-08-06T18:30:46.825Z,33.18
2022-08-06T18:33:15.687Z,33.39
2022-08-06T18:35:55.020Z,33.64
2022-08-06T18:38:32.151Z,34.15
2022-08-06T18:41:06.104Z,34.35
2022-08-06T18:43:54.728Z,34.79
2022-08-06T18:46:55.497Z,34.88
2022-08-06T18:49:20.461Z,34.91
2022-08-06T18:51:57.626Z,35.57
2022-08-06T18:54:25.292Z,35.13
2022-08-06T18:56:53.364Z,35.59
2022-08-06T18:59:25.911Z,35.48
2022-08-06T19:01:58.109Z,35.68
2022-08-06T19:04:28.295Z,35.69
2022-08-06T19:07:03.005Z,36.05
2022-08-06T19:09:33.906Z,36.45
2022-08-06T19:12:12.854Z,36.53
2022-08-06T19:14:44.344Z,37.22
2022-08-06T19:17:17.688Z,37.14
2022-08-06T19:20:18.723Z,37.43
2022-08-06T19:22:52.914Z,37.82
2022-08-06T19:25:22.809Z,38.02
2022-08-06T19:28:35.128Z,38.75
2022-08-06T19:30:57.430Z,39.23
2022-08-06T19:33:24.618Z,38.98
2022-08-06T19:36:07.252Z,39.06
2022-08-06T19:38:39.596Z,39.51
2022-08-06T19:41:09.992Z,39.77
2022-08-06T19:44:25.849Z,40.14
2022-08-06T19:46:35.015Z,40.41
2022-08-06T19:49:04.350Z,40.25
2022-08-06T19:52:04.509Z,40.27
2022-08-06T19:54:25.983Z,40.60
2022-08-06T19:57:06.318Z,40.59
2022-08-06T20:00:50.467Z,41.06
2022-08-06T20:02:29.012Z,41.47
2022-08-06T20:04:58.030Z,41.09
2022-08-06T20:07:34.204Z,41.67
2022-08-06T20:10:03.405Z,41.73
2022-08-06T20:12:35.202Z,41.56
2022-08-06T20:15:03.850Z,42.26
2022-08-06T20:17:46.166Z,42.14
2022-08-06T20:20:28.879Z,42.47
2022-08-06T20:23:08.049Z,42.91
2022-08-06T20:26:08.839Z,42.79
2022-08-06T20:29:08.855Z,43.08
2022-08-06T20:31:18.375Z,43.20
2022-08-06T20:33:58.080Z,43.27
2022-08-06T20:36:31.116Z,43.48
2022-08-06T20:38:59.477Z,43.67
2022-08-06T20:41:57.286Z,44.00
2022-08-06T20:44:18.196Z,44.33
2022-08-06T20:47:01.620Z,43.95
2022-08-06T20:50:02.567Z,44.14
2022-08-06T20:52:24.211Z,44.46
2022-08-06T20:54:53.001Z,44.62
2022-08-06T20:57:26.570Z,44.42
2022-08-06T20:59:57.787Z,44.54
2022-08-06T21:02:31.811Z,44.63
2022-08-06T21:05:15.650Z,44.68
2022-08-06T21:07:56.864Z,44.88
2022-08-06T21:10:30.627Z,45.01
2022-08-06T21:13:06.694Z,45.28
2022-08-06T21:15:53.878Z,45.13
2022-08-06T21:18:26.200Z,45.61
2022-08-06T21:20:56.121Z,45.61
2022-08-06T21:23:26.083Z,45.54
2022-08-06T21:26:15.328Z,46.00
2022-08-06T21:28:54.381Z,46.08
2022-08-06T21:31:27.689Z,46.18
2022-08-06T21:33:56.610Z,46.23
2022-08-06T21:36:26.018Z,46.20
2022-08-06T21:38:55.293Z,46.86
2022-08-06T21:41:54.710Z,47.20
2022-08-06T21:44:18.069Z,47.21
2022-08-06T21:46:50.130Z,46.64
2022-08-06T21:50:00.694Z,47.03
2022-08-06T21:52:15.856Z,47.15
2022-08-06T21:54:49.696Z,47.37
2022-08-06T21:57:21.137Z,47.76
2022-08-06T22:00:20.308Z,47.45
2022-08-06T22:02:58.159Z,47.65
2022-08-06T22:06:20.662Z,47.61
2022-08-06T22:08:13.785Z,47.54
2022-08-06T22:10:41.902Z,47.65
2022-08-06T22:13:19.247Z,47.59
2022-08-06T22:15:55.407Z,47.63
2022-08-06T22:18:28.998Z,48.27
2022-08-06T22:20:59.654Z,48.22
2022-08-06T22:23:30.133Z,48.42
2022-08-06T22:26:00.483Z,48.52
2022-08-06T22:28:37.951Z,48.80
2022-08-06T22:31:08.708Z,48.90
2022-08-06T22:33:58.395Z,49.72
2022-08-06T22:36:34.391Z,49.78
2022-08-06T22:39:05.006Z,50.38
2022-08-06T22:41:42.623Z,49.73
2022-08-06T22:44:31.046Z,50.12
2022-08-06T22:47:09.819Z,50.16
2022-08-06T22:49:59.249Z,50.27
2022-08-06T22:52:44.991Z,50.04
2022-08-06T22:55:18.208Z,50.16
2022-08-06T22:59:01.925Z,50.52
2022-08-06T23:00:36.015Z,50.53
2022-08-06T23:03:11.840Z,50.50
2022-08-06T23:05:44.627Z,50.59
2022-08-06T23:08:15.191Z,51.10
2022-08-06T23:10:48.201Z,50.91
2022-08-06T23:13:25.239Z,50.93
2022-08-06T23:15:58.539Z,50.72
2022-08-06T23:18:30.348Z,50.90
2022-08-06T23:21:22.100Z,51.33
2022-08-06T23:23:53.747Z,50.87
2022-08-06T23:26:31.054Z,50.89
2022-08-06T23:29:01.606Z,51.37
2022-08-06T23:31:37.419Z,51.36
2022-08-06T23:34:21.032Z,51.55
2022-08-06T23:36:54.426Z,51.78
2022-08-06T23:39:37.497Z,51.73
2022-08-06T23:42:14.678Z,51.54
2022-08-06T23:44:52.685Z,52.15
2022-08-06T23:47:52.258Z,52.17
2022-08-06T23:50:09.719Z,51.85
2022-08-06T23:52:41.976Z,51.91
2022-08-06T23:55:22.694Z,52.26
2022-08-06T23:57:57.170Z,52.61
